aviador You're here:

YBHM Decoded Metar

HAMILTON ISLAND in AUSTRALIA
Report Time2017-04-24 13:00:00
UTC Time2017-04-24 13:17:37
Flight Rules vfr VFR
Wind130° at 18 kt
W.Decomp.*RWY 14: 17.1 kt HW 5.6 kt LCW
W.Rank130° ranks 1
Current wind is above 130° avg. (17.2)
Visibility9999 m
Phenomena:N/A
Clouds:Broken 031 Hf
Expected CloudBase > 1,600 ft AGL from Temp-Dew spread
Ceiling3,100 ft
Temp24°C (ISA +9)
Dew Point20°C (78% RH)
AAT21.2°C
QNH1017 hPa
Density Alt1,237 ft
Elevation16 ft
Report Wrong Elevation
Raw Report
YBHM 241300Z AUTO 13018KT 9999 // BKN031 24/20 Q1017=

Extra information for YBHM:More info

Metar Taf Metar & Taf Last 4 Metars F.Rules Stats Wind Profile Meteogram Temp Stats Airport Information Weather charts Add Link Nearby VenuesMetar ALERT Operation Metar Decoded Social comments